sensor_id;sensor_type;location;lat;lon;timestamp;pressure;altitude;pressure_sealevel;temperature;humidity
24280;BME280;12395;42.808;23.408;2023-07-16T00:02:01;95177.06;;;23.22;91.29
24280;BME280;12395;42.808;23.408;2023-07-16T00:04:26;95175.97;;;23.23;91.61
24280;BME280;12395;42.808;23.408;2023-07-16T00:06:51;95170.06;;;23.16;91.57
24280;BME280;12395;42.808;23.408;2023-07-16T00:09:17;95163.31;;;23.13;91.12
24280;BME280;12395;42.808;23.408;2023-07-16T00:11:42;95176.25;;;23.21;91.33
24280;BME280;12395;42.808;23.408;2023-07-16T00:14:10;95169.03;;;23.12;91.65
24280;BME280;12395;42.808;23.408;2023-07-16T00:16:37;95181.97;;;23.15;91.72
24280;BME280;12395;42.808;23.408;2023-07-16T00:19:02;95169.84;;;23.07;92.00
24280;BME280;12395;42.808;23.408;2023-07-16T00:21:28;95172.03;;;23.05;92.15
24280;BME280;12395;42.808;23.408;2023-07-16T00:23:53;95159.66;;;22.94;92.32
24280;BME280;12395;42.808;23.408;2023-07-16T00:26:18;95165.00;;;22.99;92.41
24280;BME280;12395;42.808;23.408;2023-07-16T00:28:44;95156.13;;;22.93;92.92
24280;BME280;12395;42.808;23.408;2023-07-16T00:31:10;95161.53;;;22.88;93.33
24280;BME280;12395;42.808;23.408;2023-07-16T00:33:35;95153.78;;;22.77;93.86
24280;BME280;12395;42.808;23.408;2023-07-16T00:36:01;95157.81;;;22.79;94.32
24280;BME280;12395;42.808;23.408;2023-07-16T00:38:26;95163.47;;;22.78;94.40
24280;BME280;12395;42.808;23.408;2023-07-16T00:40:51;95155.94;;;22.75;95.20
24280;BME280;12395;42.808;23.408;2023-07-16T00:43:17;95171.59;;;22.78;94.67
24280;BME280;12395;42.808;23.408;2023-07-16T00:45:45;95168.63;;;22.74;95.12
24280;BME280;12395;42.808;23.408;2023-07-16T00:48:11;95162.19;;;22.70;94.87
24280;BME280;12395;42.808;23.408;2023-07-16T00:50:38;95171.88;;;22.76;94.67
24280;BME280;12395;42.808;23.408;2023-07-16T00:53:09;95175.69;;;22.70;94.94
24280;BME280;12395;42.808;23.408;2023-07-16T00:55:36;95173.50;;;22.72;95.51
24280;BME280;12395;42.808;23.408;2023-07-16T00:58:04;95170.00;;;22.72;95.15
24280;BME280;12395;42.808;23.408;2023-07-16T01:00:34;95167.31;;;22.67;95.65
24280;BME280;12395;42.808;23.408;2023-07-16T01:03:01;95171.94;;;22.61;95.31
24280;BME280;12395;42.808;23.408;2023-07-16T01:08:09;95165.19;;;22.59;95.55
24280;BME280;12395;42.808;23.408;2023-07-16T01:10:37;95162.19;;;22.55;95.61
24280;BME280;12395;42.808;23.408;2023-07-16T01:13:03;95175.13;;;22.58;95.53
24280;BME280;12395;42.808;23.408;2023-07-16T01:15:29;95161.13;;;22.51;96.08
24280;BME280;12395;42.808;23.408;2023-07-16T01:17:54;95165.19;;;22.49;95.95
24280;BME280;12395;42.808;23.408;2023-07-16T01:20:20;95160.06;;;22.47;96.46
24280;BME280;12395;42.808;23.408;2023-07-16T01:26:05;95170.34;;;22.40;96.73
24280;BME280;12395;42.808;23.408;2023-07-16T01:31:32;95162.28;;;22.25;97.31
24280;BME280;12395;42.808;23.408;2023-07-16T01:33:59;95172.53;;;22.28;97.60
24280;BME280;12395;42.808;23.408;2023-07-16T01:36:26;95167.16;;;22.28;97.66
24280;BME280;12395;42.808;23.408;2023-07-16T01:38:51;95166.59;;;22.31;97.20
24280;BME280;12395;42.808;23.408;2023-07-16T01:41:17;95153.13;;;22.26;96.95
24280;BME280;12395;42.808;23.408;2023-07-16T01:43:43;95167.94;;;22.34;96.90
24280;BME280;12395;42.808;23.408;2023-07-16T01:46:09;95171.72;;;22.27;97.52
24280;BME280;12395;42.808;23.408;2023-07-16T01:48:35;95173.91;;;22.25;97.32
24280;BME280;12395;42.808;23.408;2023-07-16T01:51:02;95155.56;;;22.12;97.40
24280;BME280;12395;42.808;23.408;2023-07-16T01:53:28;95169.59;;;22.19;97.88
24280;BME280;12395;42.808;23.408;2023-07-16T01:55:53;95169.31;;;22.21;97.19
24280;BME280;12395;42.808;23.408;2023-07-16T01:58:19;95164.47;;;22.13;97.82
24280;BME280;12395;42.808;23.408;2023-07-16T02:00:44;95169.06;;;22.17;97.59
24280;BME280;12395;42.808;23.408;2023-07-16T02:03:11;95174.72;;;22.16;97.43
24280;BME280;12395;42.808;23.408;2023-07-16T02:05:36;95165.81;;;22.10;97.40
24280;BME280;12395;42.808;23.408;2023-07-16T02:08:02;95165.81;;;22.10;97.23
24280;BME280;12395;42.808;23.408;2023-07-16T02:10:27;95166.91;;;22.04;98.09
24280;BME280;12395;42.808;23.408;2023-07-16T02:12:52;95153.94;;;21.96;97.71
24280;BME280;12395;42.808;23.408;2023-07-16T02:15:18;95144.53;;;21.94;97.43
24280;BME280;12395;42.808;23.408;2023-07-16T02:17:44;95159.88;;;22.03;97.84
24280;BME280;12395;42.808;23.408;2023-07-16T02:20:10;95168.25;;;22.07;97.06
24280;BME280;12395;42.808;23.408;2023-07-16T02:22:36;95166.09;;;22.04;97.27
24280;BME280;12395;42.808;23.408;2023-07-16T02:25:02;95160.44;;;21.95;97.31
24280;BME280;12395;42.808;23.408;2023-07-16T02:27:28;95166.63;;;22.01;96.84
24280;BME280;12395;42.808;23.408;2023-07-16T02:29:54;95165.31;;;21.93;98.08
24280;BME280;12395;42.808;23.408;2023-07-16T02:32:19;95170.41;;;21.95;98.02
24280;BME280;12395;42.808;23.408;2023-07-16T02:34:45;95165.84;;;21.90;98.61
24280;BME280;12395;42.808;23.408;2023-07-16T02:37:10;95175.81;;;21.95;97.98
24280;BME280;12395;42.808;23.408;2023-07-16T02:39:36;95175.56;;;21.91;97.78
24280;BME280;12395;42.808;23.408;2023-07-16T02:42:01;95181.72;;;21.82;98.47
24280;BME280;12395;42.808;23.408;2023-07-16T02:44:27;95167.44;;;21.71;98.24
24280;BME280;12395;42.808;23.408;2023-07-16T02:46:52;95176.06;;;21.78;98.51
24280;BME280;12395;42.808;23.408;2023-07-16T02:49:17;95183.13;;;21.84;97.63
24280;BME280;12395;42.808;23.408;2023-07-16T02:51:43;95179.84;;;21.77;97.76
24280;BME280;12395;42.808;23.408;2023-07-16T02:54:08;95176.34;;;21.82;97.59
24280;BME280;12395;42.808;23.408;2023-07-16T02:56:34;95179.03;;;21.82;97.34
24280;BME280;12395;42.808;23.408;2023-07-16T02:58:59;95167.16;;;21.63;98.22
24280;BME280;12395;42.808;23.408;2023-07-16T03:01:25;95191.16;;;21.69;98.47
24280;BME280;12395;42.808;23.408;2023-07-16T03:03:50;95188.47;;;21.74;98.02
24280;BME280;12395;42.808;23.408;2023-07-16T03:06:16;95182.78;;;21.71;97.85
24280;BME280;12395;42.808;23.408;2023-07-16T03:08:41;95196.56;;;21.74;97.51
24280;BME280;12395;42.808;23.408;2023-07-16T03:11:06;95187.66;;;21.74;96.62
24280;BME280;12395;42.808;23.408;2023-07-16T03:13:32;95186.84;;;21.73;96.71
24280;BME280;12395;42.808;23.408;2023-07-16T03:15:57;95182.28;;;21.74;96.24
24280;BME280;12395;42.808;23.408;2023-07-16T03:18:28;95200.13;;;21.85;95.56
24280;BME280;12395;42.808;23.408;2023-07-16T03:20:53;95179.56;;;21.74;95.99
24280;BME280;12395;42.808;23.408;2023-07-16T03:23:18;95184.97;;;21.79;95.57
24280;BME280;12395;42.808;23.408;2023-07-16T03:25:44;95195.50;;;21.80;95.41
24280;BME280;12395;42.808;23.408;2023-07-16T03:28:10;95187.13;;;21.82;95.05
24280;BME280;12395;42.808;23.408;2023-07-16T03:30:35;95202.00;;;21.89;95.16
24280;BME280;12395;42.808;23.408;2023-07-16T03:33:02;95175.81;;;21.70;95.30
24280;BME280;12395;42.808;23.408;2023-07-16T03:35:28;95188.78;;;21.83;94.41
24280;BME280;12395;42.808;23.408;2023-07-16T03:37:53;95201.72;;;21.91;94.42
24280;BME280;12395;42.808;23.408;2023-07-16T03:40:25;95206.59;;;21.94;95.06
24280;BME280;12395;42.808;23.408;2023-07-16T03:42:50;95196.84;;;21.88;94.12
24280;BME280;12395;42.808;23.408;2023-07-16T03:45:16;95212.53;;;21.96;92.89
24280;BME280;12395;42.808;23.408;2023-07-16T03:47:41;95216.03;;;22.06;92.97
24280;BME280;12395;42.808;23.408;2023-07-16T03:50:07;95205.75;;;22.03;93.14
24280;BME280;12395;42.808;23.408;2023-07-16T03:52:33;95199.56;;;21.98;93.24
24280;BME280;12395;42.808;23.408;2023-07-16T03:54:58;95206.31;;;22.10;92.33
24280;BME280;12395;42.808;23.408;2023-07-16T03:57:23;95203.34;;;22.17;92.08
24280;BME280;12395;42.808;23.408;2023-07-16T03:59:49;95205.47;;;22.20;91.60
24280;BME280;12395;42.808;23.408;2023-07-16T04:02:14;95212.47;;;22.31;91.99
24280;BME280;12395;42.808;23.408;2023-07-16T04:04:40;95203.31;;;22.27;91.95
24280;BME280;12395;42.808;23.408;2023-07-16T04:07:05;95215.72;;;22.38;91.17
24280;BME280;12395;42.808;23.408;2023-07-16T04:09:31;95220.31;;;22.43;91.16
24280;BME280;12395;42.808;23.408;2023-07-16T04:11:56;95216.78;;;22.47;90.94
24280;BME280;12395;42.808;23.408;2023-07-16T04:14:21;95217.56;;;22.58;91.03
24280;BME280;12395;42.808;23.408;2023-07-16T04:16:47;95208.28;;;22.94;89.47
24280;BME280;12395;42.808;23.408;2023-07-16T04:19:12;95207.19;;;23.54;85.18
24280;BME280;12395;42.808;23.408;2023-07-16T04:21:38;95215.09;;;23.84;83.68
24280;BME280;12395;42.808;23.408;2023-07-16T04:24:05;95215.50;;;24.01;82.12
24280;BME280;12395;42.808;23.408;2023-07-16T04:26:30;95205.41;;;24.40;81.57
24280;BME280;12395;42.808;23.408;2023-07-16T04:28:56;95216.66;;;25.05;77.46
24280;BME280;12395;42.808;23.408;2023-07-16T04:31:21;95235.63;;;26.54;70.71
24280;BME280;12395;42.808;23.408;2023-07-16T04:33:46;95240.03;;;27.64;65.46
24280;BME280;12395;42.808;23.408;2023-07-16T04:36:12;95246.69;;;27.58;65.27
24280;BME280;12395;42.808;23.408;2023-07-16T04:38:38;95249.50;;;26.85;65.97
24280;BME280;12395;42.808;23.408;2023-07-16T04:41:03;95236.63;;;25.93;69.89
24280;BME280;12395;42.808;23.408;2023-07-16T04:43:28;95237.63;;;25.42;72.27
24280;BME280;12395;42.808;23.408;2023-07-16T04:45:54;95245.91;;;25.08;75.65
24280;BME280;12395;42.808;23.408;2023-07-16T04:48:19;95244.53;;;24.87;76.58
24280;BME280;12395;42.808;23.408;2023-07-16T04:50:44;95244.63;;;24.77;77.11
24280;BME280;12395;42.808;23.408;2023-07-16T04:53:10;95243.63;;;24.68;77.65
24280;BME280;12395;42.808;23.408;2023-07-16T04:55:37;95246.06;;;24.64;77.60
24280;BME280;12395;42.808;23.408;2023-07-16T04:58:02;95242.09;;;24.57;78.12
24280;BME280;12395;42.808;23.408;2023-07-16T05:00:27;95239.72;;;24.50;79.42
24280;BME280;12395;42.808;23.408;2023-07-16T05:02:53;95244.34;;;24.49;79.51
24280;BME280;12395;42.808;23.408;2023-07-16T05:05:18;95251.28;;;24.61;79.93
24280;BME280;12395;42.808;23.408;2023-07-16T05:07:43;95253.47;;;24.59;80.40
24280;BME280;12395;42.808;23.408;2023-07-16T05:10:09;95249.59;;;24.65;80.18
24280;BME280;12395;42.808;23.408;2023-07-16T05:12:34;95236.59;;;24.62;80.63
24280;BME280;12395;42.808;23.408;2023-07-16T05:15:00;95242.00;;;24.67;80.48
24280;BME280;12395;42.808;23.408;2023-07-16T05:17:25;95247.88;;;24.74;79.92
24280;BME280;12395;42.808;23.408;2023-07-16T05:19:51;95253.53;;;24.82;79.44
24280;BME280;12395;42.808;23.408;2023-07-16T05:22:16;95251.31;;;24.84;80.05
24280;BME280;12395;42.808;23.408;2023-07-16T05:24:41;95252.66;;;24.87;79.79
24280;BME280;12395;42.808;23.408;2023-07-16T05:27:07;95255.28;;;24.92;78.38
24280;BME280;12395;42.808;23.408;2023-07-16T05:29:32;95245.66;;;24.81;78.28
24280;BME280;12395;42.808;23.408;2023-07-16T05:31:57;95253.88;;;24.71;78.06
24280;BME280;12395;42.808;23.408;2023-07-16T05:34:23;95248.44;;;24.71;77.57
24280;BME280;12395;42.808;23.408;2023-07-16T05:36:48;95243.03;;;24.71;78.29
24280;BME280;12395;42.808;23.408;2023-07-16T05:39:14;95259.91;;;24.63;77.38
24280;BME280;12395;42.808;23.408;2023-07-16T05:41:39;95252.00;;;24.66;78.06
24280;BME280;12395;42.808;23.408;2023-07-16T05:44:05;95253.03;;;24.75;78.97
24280;BME280;12395;42.808;23.408;2023-07-16T05:46:31;95266.13;;;24.92;77.98
24280;BME280;12395;42.808;23.408;2023-07-16T05:48:56;95263.34;;;25.02;78.48
24280;BME280;12395;42.808;23.408;2023-07-16T05:51:21;95261.06;;;25.09;78.26
24280;BME280;12395;42.808;23.408;2023-07-16T05:53:47;95262.19;;;25.08;78.49
24280;BME280;12395;42.808;23.408;2023-07-16T05:56:12;95263.16;;;25.17;77.38
24280;BME280;12395;42.808;23.408;2023-07-16T05:58:40;95255.75;;;25.22;77.34
24280;BME280;12395;42.808;23.408;2023-07-16T06:01:06;95259.69;;;25.11;76.29
24280;BME280;12395;42.808;23.408;2023-07-16T06:03:31;95264.25;;;25.16;76.43
24280;BME280;12395;42.808;23.408;2023-07-16T06:05:57;95267.06;;;25.30;77.53
24280;BME280;12395;42.808;23.408;2023-07-16T06:08:22;95262.94;;;25.32;77.92
24280;BME280;12395;42.808;23.408;2023-07-16T06:10:49;95268.81;;;25.44;78.04
24280;BME280;12395;42.808;23.408;2023-07-16T06:13:15;95260.66;;;25.44;76.93
24280;BME280;12395;42.808;23.408;2023-07-16T06:15:40;95263.69;;;25.43;76.71
24280;BME280;12395;42.808;23.408;2023-07-16T06:18:05;95269.47;;;25.31;76.24
24280;BME280;12395;42.808;23.408;2023-07-16T06:20:31;95258.28;;;25.38;77.76
24280;BME280;12395;42.808;23.408;2023-07-16T06:22:56;95254.97;;;25.41;76.42
24280;BME280;12395;42.808;23.408;2023-07-16T06:25:22;95267.06;;;25.53;76.15
24280;BME280;12395;42.808;23.408;2023-07-16T06:27:47;95257.16;;;25.62;76.82
24280;BME280;12395;42.808;23.408;2023-07-16T06:30:12;95268.41;;;25.74;74.96
24280;BME280;12395;42.808;23.408;2023-07-16T06:32:38;95276.91;;;25.86;75.17
24280;BME280;12395;42.808;23.408;2023-07-16T06:35:04;95269.63;;;25.82;75.86
24280;BME280;12395;42.808;23.408;2023-07-16T06:37:29;95269.72;;;25.95;76.68
24280;BME280;12395;42.808;23.408;2023-07-16T06:39:55;95265.81;;;26.01;75.41
24280;BME280;12395;42.808;23.408;2023-07-16T06:42:20;95262.53;;;26.05;75.12
24280;BME280;12395;42.808;23.408;2023-07-16T06:44:45;95261.00;;;26.17;73.76
24280;BME280;12395;42.808;23.408;2023-07-16T06:47:11;95261.06;;;26.12;73.69
24280;BME280;12395;42.808;23.408;2023-07-16T06:49:36;95258.16;;;26.09;75.26
24280;BME280;12395;42.808;23.408;2023-07-16T06:52:02;95263.41;;;26.19;75.23
24280;BME280;12395;42.808;23.408;2023-07-16T06:54:27;95260.00;;;26.27;76.01
24280;BME280;12395;42.808;23.408;2023-07-16T06:56:53;95249.88;;;26.32;73.79
24280;BME280;12395;42.808;23.408;2023-07-16T06:59:18;95257.84;;;26.42;74.49
24280;BME280;12395;42.808;23.408;2023-07-16T07:01:43;95251.59;;;26.42;73.66
24280;BME280;12395;42.808;23.408;2023-07-16T07:04:09;95249.81;;;26.51;73.75
24280;BME280;12395;42.808;23.408;2023-07-16T07:06:34;95258.28;;;26.63;72.82
24280;BME280;12395;42.808;23.408;2023-07-16T07:09:00;95253.88;;;26.67;73.14
24280;BME280;12395;42.808;23.408;2023-07-16T07:11:25;95255.69;;;26.71;71.70
24280;BME280;12395;42.808;23.408;2023-07-16T07:13:51;95263.19;;;26.80;73.15
24280;BME280;12395;42.808;23.408;2023-07-16T07:16:17;95259.28;;;26.86;70.64
24280;BME280;12395;42.808;23.408;2023-07-16T07:18:43;95259.41;;;26.94;71.84
24280;BME280;12395;42.808;23.408;2023-07-16T07:21:08;95254.97;;;26.98;70.97
24280;BME280;12395;42.808;23.408;2023-07-16T07:23:34;95261.00;;;27.09;69.54
24280;BME280;12395;42.808;23.408;2023-07-16T07:25:59;95251.31;;;27.16;69.22
24280;BME280;12395;42.808;23.408;2023-07-16T07:28:25;95251.03;;;27.18;69.31
24280;BME280;12395;42.808;23.408;2023-07-16T07:30:50;95260.41;;;27.25;70.49
24280;BME280;12395;42.808;23.408;2023-07-16T07:33:16;95240.66;;;27.20;69.77
24280;BME280;12395;42.808;23.408;2023-07-16T07:35:41;95253.16;;;27.34;69.11
24280;BME280;12395;42.808;23.408;2023-07-16T07:38:07;95252.75;;;27.27;69.30
24280;BME280;12395;42.808;23.408;2023-07-16T07:40:32;95256.59;;;27.26;68.08
24280;BME280;12395;42.808;23.408;2023-07-16T07:42:57;95259.19;;;27.31;68.44
24280;BME280;12395;42.808;23.408;2023-07-16T07:45:23;95249.44;;;27.30;68.04
24280;BME280;12395;42.808;23.408;2023-07-16T07:47:49;95235.13;;;27.38;68.74
24280;BME280;12395;42.808;23.408;2023-07-16T07:50:14;95247.88;;;27.65;67.98
24280;BME280;12395;42.808;23.408;2023-07-16T07:52:40;95248.59;;;27.71;68.55
24280;BME280;12395;42.808;23.408;2023-07-16T07:55:06;95250.06;;;27.77;67.64
24280;BME280;12395;42.808;23.408;2023-07-16T07:57:31;95248.25;;;27.86;66.69
24280;BME280;12395;42.808;23.408;2023-07-16T07:59:57;95252.06;;;27.85;66.45
24280;BME280;12395;42.808;23.408;2023-07-16T08:02:26;95245.59;;;27.94;66.28
24280;BME280;12395;42.808;23.408;2023-07-16T08:04:52;95251.47;;;28.01;68.10
24280;BME280;12395;42.808;23.408;2023-07-16T08:07:18;95252.53;;;28.14;69.22
24280;BME280;12395;42.808;23.408;2023-07-16T08:09:43;95246.44;;;28.17;65.22
24280;BME280;12395;42.808;23.408;2023-07-16T08:12:09;95234.66;;;28.08;66.63
24280;BME280;12395;42.808;23.408;2023-07-16T08:14:34;95245.75;;;28.11;64.82
24280;BME280;12395;42.808;23.408;2023-07-16T08:16:59;95250.66;;;28.23;64.40
24280;BME280;12395;42.808;23.408;2023-07-16T08:19:25;95248.31;;;28.30;66.20
24280;BME280;12395;42.808;23.408;2023-07-16T08:21:50;95241.25;;;28.29;65.48
24280;BME280;12395;42.808;23.408;2023-07-16T08:24:16;95241.31;;;28.38;65.06
24280;BME280;12395;42.808;23.408;2023-07-16T08:26:41;95251.63;;;28.49;65.17
24280;BME280;12395;42.808;23.408;2023-07-16T08:29:06;95255.34;;;28.53;65.06
24280;BME280;12395;42.808;23.408;2023-07-16T08:31:32;95255.13;;;28.63;65.64
24280;BME280;12395;42.808;23.408;2023-07-16T08:33:57;95240.06;;;28.66;65.89
24280;BME280;12395;42.808;23.408;2023-07-16T08:36:22;95252.25;;;28.68;65.16
24280;BME280;12395;42.808;23.408;2023-07-16T08:38:48;95241.22;;;28.73;64.05
24280;BME280;12395;42.808;23.408;2023-07-16T08:41:14;95250.28;;;28.82;65.16
24280;BME280;12395;42.808;23.408;2023-07-16T08:43:40;95240.94;;;28.83;63.84
24280;BME280;12395;42.808;23.408;2023-07-16T08:46:07;95216.03;;;28.76;62.01
24280;BME280;12395;42.808;23.408;2023-07-16T08:48:32;95212.81;;;28.74;62.49
24280;BME280;12395;42.808;23.408;2023-07-16T08:50:58;95241.03;;;29.00;62.96
24280;BME280;12395;42.808;23.408;2023-07-16T08:53:26;95238.16;;;29.06;64.89
24280;BME280;12395;42.808;23.408;2023-07-16T08:55:51;95239.22;;;29.18;63.34
24280;BME280;12395;42.808;23.408;2023-07-16T08:58:17;95240.03;;;29.19;63.46
24280;BME280;12395;42.808;23.408;2023-07-16T09:00:44;95237.63;;;29.26;60.74
24280;BME280;12395;42.808;23.408;2023-07-16T09:03:12;95242.47;;;29.29;63.06
24280;BME280;12395;42.808;23.408;2023-07-16T09:05:39;95244.25;;;29.33;64.17
24280;BME280;12395;42.808;23.408;2023-07-16T09:08:05;95220.63;;;29.29;64.81
24280;BME280;12395;42.808;23.408;2023-07-16T09:10:31;95233.97;;;29.39;64.36
24280;BME280;12395;42.808;23.408;2023-07-16T09:12:58;95235.41;;;29.45;62.28
24280;BME280;12395;42.808;23.408;2023-07-16T09:15:24;95227.22;;;29.45;61.53
24280;BME280;12395;42.808;23.408;2023-07-16T09:17:49;95213.75;;;29.48;62.89
24280;BME280;12395;42.808;23.408;2023-07-16T09:20:16;95226.97;;;29.63;60.34
24280;BME280;12395;42.808;23.408;2023-07-16T09:22:47;95208.31;;;29.57;64.54
24280;BME280;12395;42.808;23.408;2023-07-16T09:25:16;95220.69;;;29.63;60.93
24280;BME280;12395;42.808;23.408;2023-07-16T09:27:42;95225.84;;;29.73;61.46
24280;BME280;12395;42.808;23.408;2023-07-16T09:30:14;95229.75;;;29.81;61.12
24280;BME280;12395;42.808;23.408;2023-07-16T09:32:40;95220.25;;;29.87;61.01
24280;BME280;12395;42.808;23.408;2023-07-16T09:35:09;95215.59;;;29.87;60.61
24280;BME280;12395;42.808;23.408;2023-07-16T09:37:37;95224.59;;;29.96;63.85
24280;BME280;12395;42.808;23.408;2023-07-16T09:40:07;95219.94;;;29.97;58.49
24280;BME280;12395;42.808;23.408;2023-07-16T09:42:43;95224.28;;;30.06;62.55
24280;BME280;12395;42.808;23.408;2023-07-16T09:45:18;95206.28;;;30.05;60.66
24280;BME280;12395;42.808;23.408;2023-07-16T09:47:44;95210.78;;;30.18;58.12
24280;BME280;12395;42.808;23.408;2023-07-16T09:50:10;95213.50;;;30.27;61.34
24280;BME280;12395;42.808;23.408;2023-07-16T09:52:37;95200.81;;;30.31;61.31
24280;BME280;12395;42.808;23.408;2023-07-16T09:55:03;95212.41;;;30.36;59.24
24280;BME280;12395;42.808;23.408;2023-07-16T09:57:36;95215.63;;;30.38;59.58
24280;BME280;12395;42.808;23.408;2023-07-16T10:00:06;95209.00;;;30.39;59.38
24280;BME280;12395;42.808;23.408;2023-07-16T10:02:35;95195.03;;;30.32;59.06
24280;BME280;12395;42.808;23.408;2023-07-16T10:05:24;95206.91;;;30.45;61.09
24280;BME280;12395;42.808;23.408;2023-07-16T10:07:57;95207.53;;;30.51;57.63
24280;BME280;12395;42.808;23.408;2023-07-16T10:13:07;95199.63;;;30.66;59.25
24280;BME280;12395;42.808;23.408;2023-07-16T10:15:33;95188.97;;;30.65;59.60
24280;BME280;12395;42.808;23.408;2023-07-16T10:17:58;95199.09;;;30.81;60.52
24280;BME280;12395;42.808;23.408;2023-07-16T10:20:35;95205.34;;;30.90;59.76
24280;BME280;12395;42.808;23.408;2023-07-16T10:23:15;95192.78;;;30.98;60.33
24280;BME280;12395;42.808;23.408;2023-07-16T10:26:00;95197.72;;;31.04;55.95
24280;BME280;12395;42.808;23.408;2023-07-16T10:28:26;95172.38;;;30.87;55.46
24280;BME280;12395;42.808;23.408;2023-07-16T10:30:52;95172.03;;;30.88;53.88
24280;BME280;12395;42.808;23.408;2023-07-16T10:33:18;95183.63;;;30.94;55.11
24280;BME280;12395;42.808;23.408;2023-07-16T10:35:45;95196.44;;;31.02;54.19
24280;BME280;12395;42.808;23.408;2023-07-16T10:38:10;95180.31;;;31.09;56.91
24280;BME280;12395;42.808;23.408;2023-07-16T10:40:40;95182.72;;;31.10;56.21
24280;BME280;12395;42.808;23.408;2023-07-16T10:43:06;95186.34;;;31.23;56.17
24280;BME280;12395;42.808;23.408;2023-07-16T10:45:31;95174.09;;;31.29;56.39
24280;BME280;12395;42.808;23.408;2023-07-16T10:47:57;95168.56;;;31.38;54.45
24280;BME280;12395;42.808;23.408;2023-07-16T10:50:22;95172.25;;;31.42;51.61
24280;BME280;12395;42.808;23.408;2023-07-16T10:52:56;95174.69;;;31.43;53.60
24280;BME280;12395;42.808;23.408;2023-07-16T10:55:26;95183.38;;;31.45;53.34
24280;BME280;12395;42.808;23.408;2023-07-16T10:57:51;95157.81;;;31.33;52.38
24280;BME280;12395;42.808;23.408;2023-07-16T11:00:19;95173.22;;;31.46;53.06
24280;BME280;12395;42.808;23.408;2023-07-16T11:02:46;95171.88;;;31.52;55.83
24280;BME280;12395;42.808;23.408;2023-07-16T11:05:16;95166.13;;;31.65;54.19
24280;BME280;12395;42.808;23.408;2023-07-16T11:07:46;95172.81;;;31.76;51.55
24280;BME280;12395;42.808;23.408;2023-07-16T11:10:14;95163.94;;;31.79;54.43
24280;BME280;12395;42.808;23.408;2023-07-16T11:12:41;95169.44;;;31.79;53.72
24280;BME280;12395;42.808;23.408;2023-07-16T11:15:07;95163.53;;;31.89;51.86
24280;BME280;12395;42.808;23.408;2023-07-16T11:17:33;95144.34;;;31.89;50.98
24280;BME280;12395;42.808;23.408;2023-07-16T11:20:00;95155.78;;;31.91;51.17
24280;BME280;12395;42.808;23.408;2023-07-16T11:22:26;95155.44;;;31.93;49.19
24280;BME280;12395;42.808;23.408;2023-07-16T11:24:52;95154.81;;;31.96;47.66
24280;BME280;12395;42.808;23.408;2023-07-16T11:27:22;95157.72;;;31.91;48.47
24280;BME280;12395;42.808;23.408;2023-07-16T11:29:51;95146.22;;;31.77;46.50
24280;BME280;12395;42.808;23.408;2023-07-16T11:32:41;95150.63;;;31.90;48.25
24280;BME280;12395;42.808;23.408;2023-07-16T11:35:15;95128.03;;;31.93;49.39
24280;BME280;12395;42.808;23.408;2023-07-16T11:37:41;95125.03;;;32.07;50.92
24280;BME280;12395;42.808;23.408;2023-07-16T11:40:08;95126.09;;;32.14;49.25
24280;BME280;12395;42.808;23.408;2023-07-16T11:42:36;95130.81;;;32.26;51.69
24280;BME280;12395;42.808;23.408;2023-07-16T11:45:03;95124.19;;;32.27;47.69
24280;BME280;12395;42.808;23.408;2023-07-16T11:47:29;95122.16;;;32.03;45.30
24280;BME280;12395;42.808;23.408;2023-07-16T11:49:55;95133.16;;;32.15;46.81
24280;BME280;12395;42.808;23.408;2023-07-16T11:52:23;95136.00;;;32.39;49.25
24280;BME280;12395;42.808;23.408;2023-07-16T11:54:49;95126.63;;;32.40;48.50
24280;BME280;12395;42.808;23.408;2023-07-16T11:57:15;95133.66;;;32.50;48.72
24280;BME280;12395;42.808;23.408;2023-07-16T11:59:41;95137.78;;;32.56;46.34
24280;BME280;12395;42.808;23.408;2023-07-16T12:02:09;95128.88;;;32.71;46.29
24280;BME280;12395;42.808;23.408;2023-07-16T12:04:35;95134.81;;;32.73;45.42
24280;BME280;12395;42.808;23.408;2023-07-16T12:07:01;95116.75;;;32.72;45.37
24280;BME280;12395;42.808;23.408;2023-07-16T12:14:38;95074.00;;;32.71;43.03
24280;BME280;12395;42.808;23.408;2023-07-16T12:17:05;95076.97;;;32.78;42.62
24280;BME280;12395;42.808;23.408;2023-07-16T12:19:34;95096.16;;;32.66;44.95
24280;BME280;12395;42.808;23.408;2023-07-16T12:22:00;95113.47;;;32.91;41.98
24280;BME280;12395;42.808;23.408;2023-07-16T12:24:25;95119.31;;;33.25;42.35
24280;BME280;12395;42.808;23.408;2023-07-16T12:26:50;95100.28;;;32.96;42.95
24280;BME280;12395;42.808;23.408;2023-07-16T12:29:16;95104.41;;;33.26;44.48
24280;BME280;12395;42.808;23.408;2023-07-16T12:31:41;95101.75;;;33.42;41.59
24280;BME280;12395;42.808;23.408;2023-07-16T12:34:06;95103.47;;;33.47;40.08
24280;BME280;12395;42.808;23.408;2023-07-16T12:36:32;95111.34;;;33.60;40.25
24280;BME280;12395;42.808;23.408;2023-07-16T12:38:57;95107.69;;;33.68;40.82
24280;BME280;12395;42.808;23.408;2023-07-16T12:41:23;95125.84;;;33.85;40.03
24280;BME280;12395;42.808;23.408;2023-07-16T12:43:48;95116.03;;;33.99;39.55
24280;BME280;12395;42.808;23.408;2023-07-16T12:46:14;95106.50;;;34.09;38.77
24280;BME280;12395;42.808;23.408;2023-07-16T12:48:39;95102.38;;;34.15;39.87
24280;BME280;12395;42.808;23.408;2023-07-16T12:51:04;95107.72;;;34.39;39.60
24280;BME280;12395;42.808;23.408;2023-07-16T12:53:30;95101.16;;;34.28;39.48
24280;BME280;12395;42.808;23.408;2023-07-16T12:55:55;95089.75;;;34.14;37.79
24280;BME280;12395;42.808;23.408;2023-07-16T12:58:21;95118.44;;;34.56;37.24
24280;BME280;12395;42.808;23.408;2023-07-16T13:00:47;95102.81;;;34.60;37.12
24280;BME280;12395;42.808;23.408;2023-07-16T13:03:13;95091.72;;;34.57;38.03